sensor_id;sensor_type;location;lat;lon;timestamp;P1;durP1;ratioP1;P2;durP2;ratioP2
12681;SDS011;6405;59.208;18.216;2022-07-29T00:01:16;3.13;;;0.50;;
12681;SDS011;6405;59.208;18.216;2022-07-29T00:03:42;0.53;;;0.40;;
12681;SDS011;6405;59.208;18.216;2022-07-29T00:06:09;0.50;;;0.50;;
12681;SDS011;6405;59.208;18.216;2022-07-29T00:08:35;0.30;;;0.30;;
12681;SDS011;6405;59.208;18.216;2022-07-29T00:11:01;1.43;;;0.30;;
12681;SDS011;6405;59.208;18.216;2022-07-29T00:13:28;1.87;;;0.40;;
12681;SDS011;6405;59.208;18.216;2022-07-29T00:15:54;0.60;;;0.30;;
12681;SDS011;6405;59.208;18.216;2022-07-29T00:18:21;0.33;;;0.33;;
12681;SDS011;6405;59.208;18.216;2022-07-29T00:20:48;0.60;;;0.40;;
12681;SDS011;6405;59.208;18.216;2022-07-29T00:23:14;0.37;;;0.37;;
12681;SDS011;6405;59.208;18.216;2022-07-29T00:25:40;0.30;;;0.30;;
12681;SDS011;6405;59.208;18.216;2022-07-29T00:28:07;1.37;;;0.50;;
12681;SDS011;6405;59.208;18.216;2022-07-29T00:30:35;0.40;;;0.40;;
12681;SDS011;6405;59.208;18.216;2022-07-29T00:33:01;1.13;;;0.40;;
12681;SDS011;6405;59.208;18.216;2022-07-29T00:35:27;3.43;;;0.77;;
12681;SDS011;6405;59.208;18.216;2022-07-29T00:38:11;0.87;;;0.50;;
12681;SDS011;6405;59.208;18.216;2022-07-29T00:40:40;1.17;;;0.50;;
12681;SDS011;6405;59.208;18.216;2022-07-29T00:43:06;1.67;;;0.40;;
12681;SDS011;6405;59.208;18.216;2022-07-29T00:45:33;0.37;;;0.37;;
12681;SDS011;6405;59.208;18.216;2022-07-29T00:48:01;2.57;;;0.50;;
12681;SDS011;6405;59.208;18.216;2022-07-29T00:50:31;0.97;;;0.40;;
12681;SDS011;6405;59.208;18.216;2022-07-29T00:53:00;0.40;;;0.40;;
12681;SDS011;6405;59.208;18.216;2022-07-29T00:55:28;0.50;;;0.50;;
12681;SDS011;6405;59.208;18.216;2022-07-29T00:57:54;0.90;;;0.30;;
12681;SDS011;6405;59.208;18.216;2022-07-29T01:00:24;0.80;;;0.43;;
12681;SDS011;6405;59.208;18.216;2022-07-29T01:02:51;0.60;;;0.40;;
12681;SDS011;6405;59.208;18.216;2022-07-29T01:05:18;1.17;;;0.50;;
12681;SDS011;6405;59.208;18.216;2022-07-29T01:07:45;0.60;;;0.40;;
12681;SDS011;6405;59.208;18.216;2022-07-29T01:10:13;0.67;;;0.50;;
12681;SDS011;6405;59.208;18.216;2022-07-29T01:12:40;1.40;;;0.53;;
12681;SDS011;6405;59.208;18.216;2022-07-29T01:15:09;0.63;;;0.50;;
12681;SDS011;6405;59.208;18.216;2022-07-29T01:17:39;1.03;;;0.40;;
12681;SDS011;6405;59.208;18.216;2022-07-29T01:28:34;1.43;;;0.60;;
12681;SDS011;6405;59.208;18.216;2022-07-29T01:31:18;0.60;;;0.40;;
12681;SDS011;6405;59.208;18.216;2022-07-29T01:33:52;0.77;;;0.33;;
12681;SDS011;6405;59.208;18.216;2022-07-29T01:36:25;0.40;;;0.40;;
12681;SDS011;6405;59.208;18.216;2022-07-29T01:39:07;1.23;;;0.60;;
12681;SDS011;6405;59.208;18.216;2022-07-29T01:41:48;0.73;;;0.43;;
12681;SDS011;6405;59.208;18.216;2022-07-29T01:44:24;1.17;;;0.30;;
12681;SDS011;6405;59.208;18.216;2022-07-29T01:46:58;1.37;;;0.50;;
12681;SDS011;6405;59.208;18.216;2022-07-29T01:49:29;0.77;;;0.40;;
12681;SDS011;6405;59.208;18.216;2022-07-29T01:52:02;2.13;;;0.70;;
12681;SDS011;6405;59.208;18.216;2022-07-29T01:54:38;1.30;;;0.20;;
12681;SDS011;6405;59.208;18.216;2022-07-29T01:57:11;1.60;;;0.50;;
12681;SDS011;6405;59.208;18.216;2022-07-29T01:59:40;0.30;;;0.30;;
12681;SDS011;6405;59.208;18.216;2022-07-29T02:02:08;0.30;;;0.30;;
12681;SDS011;6405;59.208;18.216;2022-07-29T02:04:36;0.57;;;0.50;;
12681;SDS011;6405;59.208;18.216;2022-07-29T02:07:05;0.87;;;0.33;;
12681;SDS011;6405;59.208;18.216;2022-07-29T02:09:33;0.30;;;0.30;;
12681;SDS011;6405;59.208;18.216;2022-07-29T02:12:02;0.50;;;0.40;;
12681;SDS011;6405;59.208;18.216;2022-07-29T02:14:30;0.40;;;0.40;;
12681;SDS011;6405;59.208;18.216;2022-07-29T02:17:01;0.83;;;0.40;;
12681;SDS011;6405;59.208;18.216;2022-07-29T02:19:29;0.53;;;0.40;;
12681;SDS011;6405;59.208;18.216;2022-07-29T02:21:57;0.97;;;0.53;;
12681;SDS011;6405;59.208;18.216;2022-07-29T02:24:25;1.10;;;0.40;;
12681;SDS011;6405;59.208;18.216;2022-07-29T02:26:55;0.40;;;0.40;;
12681;SDS011;6405;59.208;18.216;2022-07-29T02:29:25;0.73;;;0.60;;
12681;SDS011;6405;59.208;18.216;2022-07-29T02:31:54;0.40;;;0.40;;
12681;SDS011;6405;59.208;18.216;2022-07-29T02:34:23;0.97;;;0.37;;
12681;SDS011;6405;59.208;18.216;2022-07-29T02:36:51;0.60;;;0.40;;
12681;SDS011;6405;59.208;18.216;2022-07-29T02:39:19;0.40;;;0.30;;
12681;SDS011;6405;59.208;18.216;2022-07-29T02:41:54;0.77;;;0.40;;
12681;SDS011;6405;59.208;18.216;2022-07-29T02:44:25;0.40;;;0.40;;
12681;SDS011;6405;59.208;18.216;2022-07-29T02:46:53;0.40;;;0.40;;
12681;SDS011;6405;59.208;18.216;2022-07-29T02:52:35;2.63;;;0.60;;
12681;SDS011;6405;59.208;18.216;2022-07-29T02:55:16;0.40;;;0.40;;
12681;SDS011;6405;59.208;18.216;2022-07-29T02:57:49;0.63;;;0.60;;
12681;SDS011;6405;59.208;18.216;2022-07-29T03:00:27;0.67;;;0.33;;
12681;SDS011;6405;59.208;18.216;2022-07-29T03:02:58;1.40;;;0.37;;
12681;SDS011;6405;59.208;18.216;2022-07-29T03:05:26;0.50;;;0.43;;
12681;SDS011;6405;59.208;18.216;2022-07-29T03:07:54;0.90;;;0.50;;
12681;SDS011;6405;59.208;18.216;2022-07-29T03:10:25;0.50;;;0.40;;
12681;SDS011;6405;59.208;18.216;2022-07-29T03:12:54;3.30;;;0.50;;
12681;SDS011;6405;59.208;18.216;2022-07-29T03:15:21;1.50;;;0.60;;
12681;SDS011;6405;59.208;18.216;2022-07-29T03:17:49;0.40;;;0.40;;
12681;SDS011;6405;59.208;18.216;2022-07-29T03:20:18;0.40;;;0.40;;
12681;SDS011;6405;59.208;18.216;2022-07-29T03:22:45;1.03;;;0.40;;
12681;SDS011;6405;59.208;18.216;2022-07-29T03:25:16;0.40;;;0.40;;
12681;SDS011;6405;59.208;18.216;2022-07-29T03:27:45;0.40;;;0.40;;
12681;SDS011;6405;59.208;18.216;2022-07-29T03:30:12;0.70;;;0.50;;
12681;SDS011;6405;59.208;18.216;2022-07-29T03:32:40;1.20;;;0.50;;
12681;SDS011;6405;59.208;18.216;2022-07-29T03:35:06;0.60;;;0.60;;
12681;SDS011;6405;59.208;18.216;2022-07-29T03:37:34;0.50;;;0.40;;
12681;SDS011;6405;59.208;18.216;2022-07-29T03:40:05;0.57;;;0.53;;
12681;SDS011;6405;59.208;18.216;2022-07-29T03:42:35;3.00;;;0.50;;
12681;SDS011;6405;59.208;18.216;2022-07-29T03:45:07;0.60;;;0.50;;
12681;SDS011;6405;59.208;18.216;2022-07-29T03:47:37;0.60;;;0.60;;
12681;SDS011;6405;59.208;18.216;2022-07-29T03:50:06;0.93;;;0.50;;
12681;SDS011;6405;59.208;18.216;2022-07-29T03:52:35;0.60;;;0.53;;
12681;SDS011;6405;59.208;18.216;2022-07-29T03:55:02;0.53;;;0.50;;
12681;SDS011;6405;59.208;18.216;2022-07-29T03:57:29;0.70;;;0.67;;
12681;SDS011;6405;59.208;18.216;2022-07-29T03:59:58;0.60;;;0.50;;
12681;SDS011;6405;59.208;18.216;2022-07-29T04:02:26;0.70;;;0.50;;
12681;SDS011;6405;59.208;18.216;2022-07-29T04:04:53;0.70;;;0.60;;
12681;SDS011;6405;59.208;18.216;2022-07-29T04:07:19;1.10;;;0.43;;
12681;SDS011;6405;59.208;18.216;2022-07-29T04:09:45;0.73;;;0.60;;
12681;SDS011;6405;59.208;18.216;2022-07-29T04:12:12;0.97;;;0.70;;
12681;SDS011;6405;59.208;18.216;2022-07-29T04:14:38;0.83;;;0.60;;
12681;SDS011;6405;59.208;18.216;2022-07-29T04:17:05;0.70;;;0.50;;
12681;SDS011;6405;59.208;18.216;2022-07-29T04:19:31;1.30;;;0.53;;
12681;SDS011;6405;59.208;18.216;2022-07-29T04:21:59;0.80;;;0.50;;
12681;SDS011;6405;59.208;18.216;2022-07-29T04:24:27;1.47;;;0.70;;
12681;SDS011;6405;59.208;18.216;2022-07-29T04:26:54;1.77;;;0.73;;
12681;SDS011;6405;59.208;18.216;2022-07-29T04:29:21;1.10;;;0.70;;
12681;SDS011;6405;59.208;18.216;2022-07-29T04:31:48;1.80;;;0.90;;
12681;SDS011;6405;59.208;18.216;2022-07-29T04:34:15;0.97;;;0.80;;
12681;SDS011;6405;59.208;18.216;2022-07-29T04:36:42;0.90;;;0.80;;
12681;SDS011;6405;59.208;18.216;2022-07-29T04:39:08;1.03;;;0.80;;
12681;SDS011;6405;59.208;18.216;2022-07-29T04:41:36;1.00;;;0.80;;
12681;SDS011;6405;59.208;18.216;2022-07-29T04:44:02;0.90;;;0.90;;
12681;SDS011;6405;59.208;18.216;2022-07-29T04:46:31;1.50;;;1.40;;
12681;SDS011;6405;59.208;18.216;2022-07-29T04:48:58;2.90;;;1.10;;
12681;SDS011;6405;59.208;18.216;2022-07-29T04:51:25;1.33;;;1.10;;
12681;SDS011;6405;59.208;18.216;2022-07-29T04:53:51;1.73;;;1.30;;
12681;SDS011;6405;59.208;18.216;2022-07-29T04:56:19;1.73;;;1.13;;
12681;SDS011;6405;59.208;18.216;2022-07-29T04:58:45;1.57;;;1.30;;
12681;SDS011;6405;59.208;18.216;2022-07-29T05:01:12;2.23;;;1.40;;
12681;SDS011;6405;59.208;18.216;2022-07-29T05:03:38;3.33;;;1.50;;
12681;SDS011;6405;59.208;18.216;2022-07-29T05:06:06;1.67;;;1.57;;
12681;SDS011;6405;59.208;18.216;2022-07-29T05:08:33;2.20;;;1.40;;
12681;SDS011;6405;59.208;18.216;2022-07-29T05:11:00;2.00;;;1.60;;
12681;SDS011;6405;59.208;18.216;2022-07-29T05:13:27;3.00;;;1.97;;
12681;SDS011;6405;59.208;18.216;2022-07-29T05:15:54;2.70;;;1.77;;
12681;SDS011;6405;59.208;18.216;2022-07-29T05:18:21;2.37;;;1.90;;
12681;SDS011;6405;59.208;18.216;2022-07-29T05:20:48;2.20;;;1.67;;
12681;SDS011;6405;59.208;18.216;2022-07-29T05:23:15;3.07;;;1.97;;
12681;SDS011;6405;59.208;18.216;2022-07-29T05:25:42;2.27;;;2.07;;
12681;SDS011;6405;59.208;18.216;2022-07-29T05:28:09;2.30;;;1.70;;
12681;SDS011;6405;59.208;18.216;2022-07-29T05:30:36;2.20;;;1.80;;
12681;SDS011;6405;59.208;18.216;2022-07-29T05:33:03;2.10;;;1.90;;
12681;SDS011;6405;59.208;18.216;2022-07-29T05:35:29;3.57;;;1.63;;
12681;SDS011;6405;59.208;18.216;2022-07-29T05:37:56;3.93;;;1.50;;
12681;SDS011;6405;59.208;18.216;2022-07-29T05:40:22;1.73;;;1.33;;
12681;SDS011;6405;59.208;18.216;2022-07-29T05:42:50;2.27;;;1.30;;
12681;SDS011;6405;59.208;18.216;2022-07-29T05:45:16;1.53;;;1.03;;
12681;SDS011;6405;59.208;18.216;2022-07-29T05:47:42;1.30;;;1.20;;
12681;SDS011;6405;59.208;18.216;2022-07-29T05:50:09;1.10;;;1.00;;
12681;SDS011;6405;59.208;18.216;2022-07-29T05:52:36;2.53;;;1.10;;
12681;SDS011;6405;59.208;18.216;2022-07-29T05:55:03;1.93;;;1.07;;
12681;SDS011;6405;59.208;18.216;2022-07-29T05:57:31;1.17;;;1.07;;
12681;SDS011;6405;59.208;18.216;2022-07-29T05:59:58;2.00;;;0.87;;
12681;SDS011;6405;59.208;18.216;2022-07-29T06:02:25;0.80;;;0.60;;
12681;SDS011;6405;59.208;18.216;2022-07-29T06:04:52;0.80;;;0.77;;
12681;SDS011;6405;59.208;18.216;2022-07-29T06:07:19;1.23;;;0.63;;
12681;SDS011;6405;59.208;18.216;2022-07-29T06:09:45;1.27;;;0.50;;
12681;SDS011;6405;59.208;18.216;2022-07-29T06:12:13;0.53;;;0.50;;
12681;SDS011;6405;59.208;18.216;2022-07-29T06:14:40;0.63;;;0.50;;
12681;SDS011;6405;59.208;18.216;2022-07-29T06:17:06;0.80;;;0.47;;
12681;SDS011;6405;59.208;18.216;2022-07-29T06:19:36;0.40;;;0.40;;
12681;SDS011;6405;59.208;18.216;2022-07-29T06:22:03;0.47;;;0.30;;
12681;SDS011;6405;59.208;18.216;2022-07-29T06:24:30;2.33;;;0.63;;
12681;SDS011;6405;59.208;18.216;2022-07-29T06:26:57;3.50;;;0.60;;
12681;SDS011;6405;59.208;18.216;2022-07-29T06:29:24;1.00;;;0.70;;
12681;SDS011;6405;59.208;18.216;2022-07-29T06:31:52;1.07;;;0.30;;
12681;SDS011;6405;59.208;18.216;2022-07-29T06:34:18;0.20;;;0.20;;
12681;SDS011;6405;59.208;18.216;2022-07-29T06:36:46;0.20;;;0.20;;
12681;SDS011;6405;59.208;18.216;2022-07-29T06:39:12;0.60;;;0.40;;
12681;SDS011;6405;59.208;18.216;2022-07-29T06:41:39;0.87;;;0.20;;
12681;SDS011;6405;59.208;18.216;2022-07-29T06:44:05;0.73;;;0.37;;
12681;SDS011;6405;59.208;18.216;2022-07-29T06:46:31;0.30;;;0.30;;
12681;SDS011;6405;59.208;18.216;2022-07-29T06:48:58;0.50;;;0.30;;
12681;SDS011;6405;59.208;18.216;2022-07-29T06:51:26;0.57;;;0.40;;
12681;SDS011;6405;59.208;18.216;2022-07-29T06:53:54;1.37;;;0.40;;
12681;SDS011;6405;59.208;18.216;2022-07-29T06:56:19;0.30;;;0.30;;
12681;SDS011;6405;59.208;18.216;2022-07-29T06:58:46;0.67;;;0.40;;
12681;SDS011;6405;59.208;18.216;2022-07-29T07:01:14;1.63;;;0.30;;
12681;SDS011;6405;59.208;18.216;2022-07-29T07:03:41;0.30;;;0.20;;
12681;SDS011;6405;59.208;18.216;2022-07-29T07:06:07;0.30;;;0.30;;
12681;SDS011;6405;59.208;18.216;2022-07-29T07:08:33;0.50;;;0.40;;
12681;SDS011;6405;59.208;18.216;2022-07-29T07:10:59;0.57;;;0.40;;
12681;SDS011;6405;59.208;18.216;2022-07-29T07:13:26;1.37;;;0.43;;
12681;SDS011;6405;59.208;18.216;2022-07-29T07:15:53;0.23;;;0.20;;
12681;SDS011;6405;59.208;18.216;2022-07-29T07:18:20;0.37;;;0.30;;
12681;SDS011;6405;59.208;18.216;2022-07-29T07:20:46;0.30;;;0.30;;
12681;SDS011;6405;59.208;18.216;2022-07-29T07:23:13;0.20;;;0.20;;
12681;SDS011;6405;59.208;18.216;2022-07-29T07:25:39;1.60;;;0.47;;
12681;SDS011;6405;59.208;18.216;2022-07-29T07:28:06;1.70;;;0.50;;
12681;SDS011;6405;59.208;18.216;2022-07-29T07:30:32;1.40;;;0.30;;
12681;SDS011;6405;59.208;18.216;2022-07-29T07:33:00;2.10;;;0.50;;
12681;SDS011;6405;59.208;18.216;2022-07-29T07:35:26;0.60;;;0.40;;
12681;SDS011;6405;59.208;18.216;2022-07-29T07:37:55;0.87;;;0.33;;
12681;SDS011;6405;59.208;18.216;2022-07-29T07:40:22;0.37;;;0.30;;
12681;SDS011;6405;59.208;18.216;2022-07-29T07:42:49;0.30;;;0.20;;
12681;SDS011;6405;59.208;18.216;2022-07-29T07:45:15;0.27;;;0.27;;
12681;SDS011;6405;59.208;18.216;2022-07-29T07:47:41;0.50;;;0.30;;
12681;SDS011;6405;59.208;18.216;2022-07-29T07:50:08;0.43;;;0.40;;
12681;SDS011;6405;59.208;18.216;2022-07-29T07:52:45;0.50;;;0.33;;
12681;SDS011;6405;59.208;18.216;2022-07-29T07:55:19;0.50;;;0.40;;
12681;SDS011;6405;59.208;18.216;2022-07-29T07:57:45;0.30;;;0.30;;
12681;SDS011;6405;59.208;18.216;2022-07-29T08:00:12;0.20;;;0.20;;
12681;SDS011;6405;59.208;18.216;2022-07-29T08:02:39;0.20;;;0.20;;
12681;SDS011;6405;59.208;18.216;2022-07-29T08:05:06;0.93;;;0.40;;
12681;SDS011;6405;59.208;18.216;2022-07-29T08:07:34;0.83;;;0.40;;
12681;SDS011;6405;59.208;18.216;2022-07-29T08:10:00;0.30;;;0.30;;
12681;SDS011;6405;59.208;18.216;2022-07-29T08:12:28;0.43;;;0.33;;
12681;SDS011;6405;59.208;18.216;2022-07-29T08:14:54;0.20;;;0.20;;
12681;SDS011;6405;59.208;18.216;2022-07-29T08:17:20;0.30;;;0.30;;
12681;SDS011;6405;59.208;18.216;2022-07-29T08:19:46;0.70;;;0.30;;
12681;SDS011;6405;59.208;18.216;2022-07-29T08:22:15;1.20;;;0.30;;
12681;SDS011;6405;59.208;18.216;2022-07-29T08:24:41;0.63;;;0.23;;
12681;SDS011;6405;59.208;18.216;2022-07-29T08:27:21;1.20;;;0.23;;
12681;SDS011;6405;59.208;18.216;2022-07-29T08:29:48;0.50;;;0.20;;
12681;SDS011;6405;59.208;18.216;2022-07-29T08:32:15;0.57;;;0.30;;
12681;SDS011;6405;59.208;18.216;2022-07-29T08:34:42;0.30;;;0.27;;
12681;SDS011;6405;59.208;18.216;2022-07-29T08:37:13;0.47;;;0.30;;
12681;SDS011;6405;59.208;18.216;2022-07-29T08:39:39;0.17;;;0.10;;
12681;SDS011;6405;59.208;18.216;2022-07-29T08:42:05;0.30;;;0.30;;
12681;SDS011;6405;59.208;18.216;2022-07-29T08:44:32;0.23;;;0.20;;
12681;SDS011;6405;59.208;18.216;2022-07-29T08:46:59;0.33;;;0.30;;
12681;SDS011;6405;59.208;18.216;2022-07-29T08:49:24;0.70;;;0.40;;
12681;SDS011;6405;59.208;18.216;2022-07-29T08:51:51;0.43;;;0.33;;
12681;SDS011;6405;59.208;18.216;2022-07-29T08:54:20;0.27;;;0.20;;
12681;SDS011;6405;59.208;18.216;2022-07-29T08:56:48;0.97;;;0.40;;
12681;SDS011;6405;59.208;18.216;2022-07-29T08:59:18;0.20;;;0.20;;
12681;SDS011;6405;59.208;18.216;2022-07-29T09:01:47;0.87;;;0.33;;
12681;SDS011;6405;59.208;18.216;2022-07-29T09:04:19;0.43;;;0.23;;
12681;SDS011;6405;59.208;18.216;2022-07-29T09:06:47;1.43;;;0.37;;
12681;SDS011;6405;59.208;18.216;2022-07-29T09:09:16;1.13;;;0.20;;
12681;SDS011;6405;59.208;18.216;2022-07-29T09:11:43;0.50;;;0.20;;
12681;SDS011;6405;59.208;18.216;2022-07-29T09:14:11;0.40;;;0.20;;
12681;SDS011;6405;59.208;18.216;2022-07-29T09:16:45;0.30;;;0.30;;
12681;SDS011;6405;59.208;18.216;2022-07-29T09:19:23;0.20;;;0.20;;
12681;SDS011;6405;59.208;18.216;2022-07-29T09:22:03;0.43;;;0.20;;
12681;SDS011;6405;59.208;18.216;2022-07-29T09:27:24;0.60;;;0.40;;
12681;SDS011;6405;59.208;18.216;2022-07-29T09:32:25;0.87;;;0.30;;
12681;SDS011;6405;59.208;18.216;2022-07-29T09:37:48;2.43;;;0.70;;
12681;SDS011;6405;59.208;18.216;2022-07-29T09:40:17;0.73;;;0.40;;
12681;SDS011;6405;59.208;18.216;2022-07-29T09:42:48;1.83;;;0.30;;
12681;SDS011;6405;59.208;18.216;2022-07-29T09:45:29;0.70;;;0.30;;
12681;SDS011;6405;59.208;18.216;2022-07-29T09:47:58;1.33;;;0.70;;
12681;SDS011;6405;59.208;18.216;2022-07-29T09:50:38;1.70;;;0.30;;
12681;SDS011;6405;59.208;18.216;2022-07-29T09:53:07;1.70;;;0.30;;
12681;SDS011;6405;59.208;18.216;2022-07-29T09:55:47;0.60;;;0.40;;
12681;SDS011;6405;59.208;18.216;2022-07-29T09:58:17;1.10;;;0.37;;
12681;SDS011;6405;59.208;18.216;2022-07-29T10:00:45;0.20;;;0.20;;
12681;SDS011;6405;59.208;18.216;2022-07-29T10:03:13;1.50;;;0.30;;
12681;SDS011;6405;59.208;18.216;2022-07-29T10:05:42;0.97;;;0.43;;
12681;SDS011;6405;59.208;18.216;2022-07-29T10:08:10;0.83;;;0.30;;
12681;SDS011;6405;59.208;18.216;2022-07-29T10:10:39;0.30;;;0.30;;
12681;SDS011;6405;59.208;18.216;2022-07-29T10:13:12;0.87;;;0.40;;
12681;SDS011;6405;59.208;18.216;2022-07-29T10:15:41;0.80;;;0.30;;
12681;SDS011;6405;59.208;18.216;2022-07-29T10:18:13;1.07;;;0.37;;
12681;SDS011;6405;59.208;18.216;2022-07-29T10:20:40;0.30;;;0.30;;
12681;SDS011;6405;59.208;18.216;2022-07-29T10:23:08;0.80;;;0.47;;
12681;SDS011;6405;59.208;18.216;2022-07-29T10:25:35;0.40;;;0.30;;
12681;SDS011;6405;59.208;18.216;2022-07-29T10:28:02;0.40;;;0.40;;
12681;SDS011;6405;59.208;18.216;2022-07-29T10:30:31;0.20;;;0.20;;
12681;SDS011;6405;59.208;18.216;2022-07-29T10:41:00;0.47;;;0.37;;
12681;SDS011;6405;59.208;18.216;2022-07-29T10:44:36;0.67;;;0.40;;
12681;SDS011;6405;59.208;18.216;2022-07-29T10:46:45;0.40;;;0.30;;
12681;SDS011;6405;59.208;18.216;2022-07-29T10:49:19;0.50;;;0.40;;
12681;SDS011;6405;59.208;18.216;2022-07-29T11:05:12;0.43;;;0.33;;
12681;SDS011;6405;59.208;18.216;2022-07-29T11:10:39;0.63;;;0.30;;
12681;SDS011;6405;59.208;18.216;2022-07-29T11:13:07;0.33;;;0.30;;
12681;SDS011;6405;59.208;18.216;2022-07-29T11:18:23;0.93;;;0.50;;
12681;SDS011;6405;59.208;18.216;2022-07-29T11:20:50;0.80;;;0.30;;
12681;SDS011;6405;59.208;18.216;2022-07-29T11:31:19;0.30;;;0.30;;
12681;SDS011;6405;59.208;18.216;2022-07-29T11:39:37;0.50;;;0.47;;
12681;SDS011;6405;59.208;18.216;2022-07-29T11:45:20;2.50;;;0.40;;
12681;SDS011;6405;59.208;18.216;2022-07-29T11:48:03;0.37;;;0.33;;
12681;SDS011;6405;59.208;18.216;2022-07-29T11:50:31;0.60;;;0.40;;
12681;SDS011;6405;59.208;18.216;2022-07-29T11:53:00;0.40;;;0.30;;
12681;SDS011;6405;59.208;18.216;2022-07-29T11:55:29;0.50;;;0.50;;
12681;SDS011;6405;59.208;18.216;2022-07-29T11:57:58;0.87;;;0.30;;
12681;SDS011;6405;59.208;18.216;2022-07-29T12:00:39;0.30;;;0.30;;
12681;SDS011;6405;59.208;18.216;2022-07-29T12:03:07;0.27;;;0.27;;
12681;SDS011;6405;59.208;18.216;2022-07-29T12:05:45;0.40;;;0.30;;
12681;SDS011;6405;59.208;18.216;2022-07-29T12:08:15;0.80;;;0.40;;
12681;SDS011;6405;59.208;18.216;2022-07-29T12:10:46;0.67;;;0.33;;
12681;SDS011;6405;59.208;18.216;2022-07-29T12:13:14;0.17;;;0.17;;
12681;SDS011;6405;59.208;18.216;2022-07-29T12:15:42;1.27;;;0.30;;
12681;SDS011;6405;59.208;18.216;2022-07-29T12:18:17;1.13;;;0.40;;
12681;SDS011;6405;59.208;18.216;2022-07-29T12:20:45;0.93;;;0.30;;
12681;SDS011;6405;59.208;18.216;2022-07-29T12:23:12;0.30;;;0.30;;
12681;SDS011;6405;59.208;18.216;2022-07-29T12:25:41;2.03;;;0.37;;
12681;SDS011;6405;59.208;18.216;2022-07-29T12:28:10;0.83;;;0.20;;
12681;SDS011;6405;59.208;18.216;2022-07-29T12:30:43;1.37;;;0.20;;
12681;SDS011;6405;59.208;18.216;2022-07-29T12:33:12;0.70;;;0.40;;
12681;SDS011;6405;59.208;18.216;2022-07-29T12:35:41;0.77;;;0.30;;
12681;SDS011;6405;59.208;18.216;2022-07-29T12:38:09;0.50;;;0.30;;
12681;SDS011;6405;59.208;18.216;2022-07-29T12:40:38;0.23;;;0.23;;
12681;SDS011;6405;59.208;18.216;2022-07-29T12:43:11;0.83;;;0.30;;
12681;SDS011;6405;59.208;18.216;2022-07-29T12:45:40;1.13;;;0.20;;
12681;SDS011;6405;59.208;18.216;2022-07-29T12:48:08;0.47;;;0.33;;
12681;SDS011;6405;59.208;18.216;2022-07-29T12:50:36;2.03;;;0.30;;
12681;SDS011;6405;59.208;18.216;2022-07-29T12:53:20;0.37;;;0.30;;
12681;SDS011;6405;59.208;18.216;2022-07-29T12:55:48;0.43;;;0.30;;
12681;SDS011;6405;59.208;18.216;2022-07-29T12:58:50;0.20;;;0.20;;
12681;SDS011;6405;59.208;18.216;2022-07-29T13:01:19;0.30;;;0.30;;
12681;SDS011;6405;59.208;18.216;2022-07-29T13:03:50;0.20;;;0.20;;
12681;SDS011;6405;59.208;18.216;2022-07-29T13:06:42;0.30;;;0.30;;
12681;SDS011;6405;59.208;18.216;2022-07-29T13:09:13;0.40;;;0.30;;
12681;SDS011;6405;59.208;18.216;2022-07-29T13:11:41;0.47;;;0.30;;
12681;SDS011;6405;59.208;18.216;2022-07-29T13:14:12;1.63;;;0.27;;
12681;SDS011;6405;59.208;18.216;2022-07-29T13:19:40;0.20;;;0.20;;
12681;SDS011;6405;59.208;18.216;2022-07-29T13:22:09;0.50;;;0.30;;
12681;SDS011;6405;59.208;18.216;2022-07-29T13:24:49;0.47;;;0.30;;
12681;SDS011;6405;59.208;18.216;2022-07-29T13:27:30;1.00;;;0.17;;
12681;SDS011;6405;59.208;18.216;2022-07-29T13:29:58;0.40;;;0.40;;
12681;SDS011;6405;59.208;18.216;2022-07-29T13:32:28;0.40;;;0.30;;
12681;SDS011;6405;59.208;18.216;2022-07-29T13:34:56;1.40;;;0.27;;
12681;SDS011;6405;59.208;18.216;2022-07-29T13:37:24;0.50;;;0.40;;
12681;SDS011;6405;59.208;18.216;2022-07-29T13:39:52;0.50;;;0.20;;
12681;SDS011;6405;59.208;18.216;2022-07-29T13:42:19;0.20;;;0.20;;
12681;SDS011;6405;59.208;18.216;2022-07-29T13:44:47;0.40;;;0.20;;
12681;SDS011;6405;59.208;18.216;2022-07-29T13:47:18;0.40;;;0.30;;
12681;SDS011;6405;59.208;18.216;2022-07-29T13:49:45;0.53;;;0.27;;
12681;SDS011;6405;59.208;18.216;2022-07-29T13:52:13;0.20;;;0.20;;
12681;SDS011;6405;59.208;18.216;2022-07-29T13:54:40;1.37;;;0.20;;
12681;SDS011;6405;59.208;18.216;2022-07-29T13:57:08;0.10;;;0.10;;
12681;SDS011;6405;59.208;18.216;2022-07-29T13:59:40;0.40;;;0.23;;
12681;SDS011;6405;59.208;18.216;2022-07-29T14:02:07;1.70;;;0.30;;
12681;SDS011;6405;59.208;18.216;2022-07-29T14:04:35;0.30;;;0.23;;
12681;SDS011;6405;59.208;18.216;2022-07-29T14:07:03;0.20;;;0.20;;
12681;SDS011;6405;59.208;18.216;2022-07-29T14:09:29;0.30;;;0.30;;
12681;SDS011;6405;59.208;18.216;2022-07-29T14:11:56;0.93;;;0.37;;
12681;SDS011;6405;59.208;18.216;2022-07-29T14:14:24;0.30;;;0.30;;
12681;SDS011;6405;59.208;18.216;2022-07-29T14:16:51;0.30;;;0.30;;
12681;SDS011;6405;59.208;18.216;2022-07-29T14:19:17;0.40;;;0.40;;
12681;SDS011;6405;59.208;18.216;2022-07-29T14:21:43;0.20;;;0.20;;
12681;SDS011;6405;59.208;18.216;2022-07-29T14:24:10;1.90;;;0.27;;
12681;SDS011;6405;59.208;18.216;2022-07-29T14:26:36;0.73;;;0.33;;
12681;SDS011;6405;59.208;18.216;2022-07-29T14:29:03;0.20;;;0.20;;
12681;SDS011;6405;59.208;18.216;2022-07-29T14:31:30;0.80;;;0.30;;
12681;SDS011;6405;59.208;18.216;2022-07-29T14:33:57;1.17;;;0.20;;
12681;SDS011;6405;59.208;18.216;2022-07-29T14:36:24;0.80;;;0.40;;
12681;SDS011;6405;59.208;18.216;2022-07-29T14:38:50;0.93;;;0.40;;
12681;SDS011;6405;59.208;18.216;2022-07-29T14:41:16;0.50;;;0.40;;
12681;SDS011;6405;59.208;18.216;2022-07-29T14:43:43;0.20;;;0.20;;
12681;SDS011;6405;59.208;18.216;2022-07-29T14:46:09;0.40;;;0.27;;
12681;SDS011;6405;59.208;18.216;2022-07-29T14:48:35;1.10;;;0.67;;
12681;SDS011;6405;59.208;18.216;2022-07-29T14:51:02;0.20;;;0.20;;
12681;SDS011;6405;59.208;18.216;2022-07-29T14:53:29;0.27;;;0.23;;
12681;SDS011;6405;59.208;18.216;2022-07-29T14:55:55;0.27;;;0.20;;
12681;SDS011;6405;59.208;18.216;2022-07-29T14:58:21;0.30;;;0.30;;
12681;SDS011;6405;59.208;18.216;2022-07-29T15:00:48;0.20;;;0.20;;
12681;SDS011;6405;59.208;18.216;2022-07-29T15:03:14;1.00;;;0.50;;
12681;SDS011;6405;59.208;18.216;2022-07-29T15:05:41;0.13;;;0.13;;
12681;SDS011;6405;59.208;18.216;2022-07-29T15:08:08;0.27;;;0.20;;
12681;SDS011;6405;59.208;18.216;2022-07-29T15:10:34;0.20;;;0.20;;
12681;SDS011;6405;59.208;18.216;2022-07-29T15:13:01;0.50;;;0.30;;
12681;SDS011;6405;59.208;18.216;2022-07-29T15:15:27;0.67;;;0.30;;
12681;SDS011;6405;59.208;18.216;2022-07-29T15:17:54;0.33;;;0.30;;
12681;SDS011;6405;59.208;18.216;2022-07-29T15:20:22;0.43;;;0.20;;
12681;SDS011;6405;59.208;18.216;2022-07-29T15:22:50;0.20;;;0.20;;
12681;SDS011;6405;59.208;18.216;2022-07-29T15:25:17;1.37;;;0.40;;
12681;SDS011;6405;59.208;18.216;2022-07-29T15:27:44;0.40;;;0.20;;
12681;SDS011;6405;59.208;18.216;2022-07-29T15:30:11;1.83;;;0.50;;
12681;SDS011;6405;59.208;18.216;2022-07-29T15:32:38;0.53;;;0.20;;
12681;SDS011;6405;59.208;18.216;2022-07-29T15:35:05;0.47;;;0.40;;
12681;SDS011;6405;59.208;18.216;2022-07-29T15:37:32;1.90;;;0.30;;
12681;SDS011;6405;59.208;18.216;2022-07-29T15:40:01;0.57;;;0.40;;
12681;SDS011;6405;59.208;18.216;2022-07-29T15:42:28;0.50;;;0.30;;
12681;SDS011;6405;59.208;18.216;2022-07-29T15:44:54;0.63;;;0.40;;
12681;SDS011;6405;59.208;18.216;2022-07-29T15:47:22;1.70;;;0.50;;
12681;SDS011;6405;59.208;18.216;2022-07-29T15:49:50;1.13;;;0.50;;
12681;SDS011;6405;59.208;18.216;2022-07-29T15:52:17;0.30;;;0.20;;
12681;SDS011;6405;59.208;18.216;2022-07-29T15:54:45;0.30;;;0.30;;
12681;SDS011;6405;59.208;18.216;2022-07-29T15:57:12;0.60;;;0.40;;
12681;SDS011;6405;59.208;18.216;2022-07-29T15:59:39;0.60;;;0.40;;
12681;SDS011;6405;59.208;18.216;2022-07-29T16:02:06;0.30;;;0.20;;
12681;SDS011;6405;59.208;18.216;2022-07-29T16:04:33;0.40;;;0.33;;